Time;durP1;ratioP1;P1;durP2;ratioP2;P2;SDS_P1;SDS_P2;PMS_P1;PMS_P2;Temp;Humidity;BMP_temperature;BMP_pressure;BME280_temperature;BME280_humidity;BME280_pressure;Samples;Min_cycle;Max_cycle;Signal;HPM_P1;HPM_P2
2022/01/20 00:01:59;;;;;;;83.13;5.05;;;;;;;2.96;100.00;102127.53;5027161;28;20041;-81
2022/01/20 00:04:39;;;;;;;95.85;9.88;;;;;;;2.96;100.00;102124.84;5040613;28;20033;-81
2022/01/20 00:23:29;;;;;;;90.47;7.38;;;;;;;2.82;100.00;102148.66;5046950;28;20037;-80
2022/01/20 00:26:04;;;;;;;96.78;6.53;;;;;;;2.87;100.00;102138.59;5042314;28;20114;-80
2022/01/20 00:28:49;;;;;;;80.68;5.65;;;;;;;2.88;100.00;102137.69;5042546;28;20052;-81
2022/01/20 00:31:32;;;;;;;96.03;6.97;;;;;;;2.96;100.00;102143.78;5037692;28;20033;-81
2022/01/20 00:39:19;;;;;;;87.82;5.60;;;;;;;3.14;100.00;102158.63;5047292;28;20041;-80
2022/01/20 00:41:44;;;;;;;72.60;5.82;;;;;;;3.17;100.00;102150.44;5033118;28;20034;-81
2022/01/20 00:44:10;;;;;;;92.35;7.80;;;;;;;3.16;100.00;102145.94;5020868;28;20112;-81
2022/01/20 00:46:35;;;;;;;72.95;5.30;;;;;;;3.13;100.00;102149.63;5042678;28;20048;-81
2022/01/20 00:49:01;;;;;;;90.40;5.88;;;;;;;3.09;100.00;102138.94;5042614;28;20052;-81
2022/01/20 00:51:26;;;;;;;73.03;5.68;;;;;;;3.04;100.00;102138.16;5042749;28;20099;-80
2022/01/20 00:53:52;;;;;;;63.25;6.25;;;;;;;2.99;100.00;102142.81;5034502;28;20041;-80
2022/01/20 00:56:17;;;;;;;68.60;5.85;;;;;;;3.00;100.00;102161.72;5027455;28;20041;-81
2022/01/20 00:58:42;;;;;;;85.00;6.18;;;;;;;2.98;100.00;102152.72;5041771;28;20029;-81
2022/01/20 01:01:08;;;;;;;90.90;5.53;;;;;;;3.00;100.00;102144.56;5042577;28;20024;-81
2022/01/20 01:03:34;;;;;;;57.30;5.10;;;;;;;2.99;100.00;102159.03;5041806;28;20033;-80
2022/01/20 01:08:51;;;;;;;85.72;5.35;;;;;;;2.94;100.00;102153.75;5028099;28;20050;-81
2022/01/20 01:11:18;;;;;;;64.28;5.88;;;;;;;3.04;100.00;102154.41;5025761;28;20059;-80
2022/01/20 01:13:44;;;;;;;85.43;5.93;;;;;;;2.99;100.00;102154.50;5043733;28;20033;-81
2022/01/20 01:16:11;;;;;;;55.92;4.00;;;;;;;2.97;100.00;102156.38;5033505;28;20037;-81
2022/01/20 01:21:42;;;;;;;75.20;5.47;;;;;;;3.00;100.00;102155.41;5043530;28;20645;-81
2022/01/20 01:24:08;;;;;;;75.10;5.20;;;;;;;3.08;100.00;102162.41;5041833;28;20030;-81
2022/01/20 01:26:33;;;;;;;65.90;4.63;;;;;;;3.09;100.00;102152.47;5041352;28;20135;-81
2022/01/20 01:29:00;;;;;;;60.85;4.93;;;;;;;3.17;100.00;102168.50;5021468;28;20040;-81
2022/01/20 01:31:35;;;;;;;52.38;5.65;;;;;;;3.21;100.00;102156.63;5032031;28;20057;-81
2022/01/20 01:34:11;;;;;;;48.58;4.07;;;;;;;3.30;100.00;102173.50;5036175;28;20033;-81
2022/01/20 01:37:04;;;;;;;61.22;4.25;;;;;;;3.28;100.00;102175.38;5037866;28;20021;-81
2022/01/20 01:39:29;;;;;;;64.75;5.53;;;;;;;3.29;100.00;102178.97;5037799;28;20113;-81
2022/01/20 01:41:56;;;;;;;43.40;3.70;;;;;;;3.31;100.00;102172.59;5028808;28;20052;-81
2022/01/20 01:44:26;;;;;;;65.57;3.55;;;;;;;3.30;100.00;102186.16;5036608;28;20585;-81
2022/01/20 01:46:53;;;;;;;50.20;3.10;;;;;;;3.29;100.00;102181.69;5028359;28;20461;-80
2022/01/20 01:49:20;;;;;;;44.03;3.40;;;;;;;3.20;100.00;102176.50;5020269;28;20108;-80
2022/01/20 01:51:46;;;;;;;49.47;2.90;;;;;;;3.16;100.00;102175.69;5025943;28;20065;-81
2022/01/20 01:54:13;;;;;;;71.75;5.75;;;;;;;3.16;100.00;102185.66;5025294;28;20036;-81
2022/01/20 01:56:40;;;;;;;40.55;3.17;;;;;;;3.11;100.00;102185.75;5027129;28;20033;-81
2022/01/20 01:59:06;;;;;;;46.75;5.13;;;;;;;3.11;100.00;102181.22;5039715;28;20030;-81
2022/01/20 02:01:35;;;;;;;61.35;4.35;;;;;;;3.06;100.00;102166.94;5023341;28;20041;-81
2022/01/20 02:04:11;;;;;;;81.57;3.88;;;;;;;3.03;100.00;102167.00;5041031;28;20112;-81
2022/01/20 02:07:12;;;;;;;57.35;4.68;;;;;;;3.02;100.00;102164.38;5046092;28;20029;-81
2022/01/20 02:20:21;;;;;;;57.47;4.68;;;;;;;2.82;100.00;102141.44;5043501;28;20034;-81
2022/01/20 02:22:47;;;;;;;53.30;4.50;;;;;;;2.82;100.00;102152.25;5034268;28;20085;-81
2022/01/20 02:25:24;;;;;;;43.05;4.93;;;;;;;2.79;100.00;102167.66;5045004;28;20034;-81
2022/01/20 02:27:50;;;;;;;51.05;4.78;;;;;;;2.74;100.00;102168.69;5045872;28;20039;-81
2022/01/20 02:30:21;;;;;;;46.28;4.18;;;;;;;2.61;100.00;102159.09;5045717;28;20033;-81
2022/01/20 02:32:55;;;;;;;38.65;4.20;;;;;;;2.74;100.00;102170.50;5044511;28;20126;-81
2022/01/20 02:35:22;;;;;;;49.28;4.22;;;;;;;2.71;100.00;102173.28;5044851;28;20523;-81
2022/01/20 02:37:51;;;;;;;61.55;4.95;;;;;;;2.78;100.00;102174.00;5041949;28;20040;-81
2022/01/20 02:45:35;;;;;;;44.42;2.85;;;;;;;2.89;100.00;102169.22;5041082;28;20039;-81
2022/01/20 02:48:01;;;;;;;53.17;4.07;;;;;;;2.91;100.00;102162.81;5038628;28;20034;-81
2022/01/20 02:50:26;;;;;;;50.65;2.50;;;;;;;2.99;100.00;102153.63;5034875;28;20046;-80
2022/01/20 02:52:52;;;;;;;51.67;3.63;;;;;;;3.07;100.00;102146.19;5040238;28;20075;-81
2022/01/20 02:55:17;;;;;;;56.53;3.13;;;;;;;2.93;100.00;102133.03;5042738;28;20048;-81
2022/01/20 02:57:43;;;;;;;49.97;4.20;;;;;;;3.12;100.00;102160.50;5043730;28;20033;-81
2022/01/20 03:00:09;;;;;;;32.83;2.75;;;;;;;3.16;100.00;102155.88;5037702;28;20429;-81
2022/01/20 03:02:34;;;;;;;55.55;3.47;;;;;;;3.20;100.00;102157.56;5043154;28;20036;-80
2022/01/20 03:05:00;;;;;;;42.67;2.63;;;;;;;3.20;100.00;102144.03;5039626;28;20042;-81
2022/01/20 03:07:26;;;;;;;54.67;4.00;;;;;;;3.26;100.00;102154.69;5026781;28;20033;-81
2022/01/20 03:09:51;;;;;;;58.80;4.28;;;;;;;3.19;100.00;102147.69;5038428;28;20040;-81
2022/01/20 03:12:17;;;;;;;41.22;5.13;;;;;;;3.15;100.00;102149.59;5037474;28;20474;-81
2022/01/20 03:14:43;;;;;;;61.45;3.00;;;;;;;3.16;100.00;102150.47;5038583;28;20034;-81
2022/01/20 03:17:09;;;;;;;32.92;4.07;;;;;;;2.92;100.00;102125.88;5028079;28;20770;-81
2022/01/20 03:19:34;;;;;;;42.05;3.13;;;;;;;3.13;100.00;102164.94;5043408;28;20029;-81
2022/01/20 03:22:00;;;;;;;50.35;2.95;;;;;;;3.06;100.00;102153.41;5027657;28;20533;-81
2022/01/20 03:24:26;;;;;;;43.50;3.45;;;;;;;3.04;100.00;102157.97;5044673;28;20029;-80
2022/01/20 03:26:51;;;;;;;30.27;2.22;;;;;;;2.99;100.00;102148.22;5023857;28;20499;-80
2022/01/20 03:29:17;;;;;;;45.40;2.92;;;;;;;2.98;100.00;102151.84;5043954;28;20050;-81
2022/01/20 03:31:43;;;;;;;51.03;4.20;;;;;;;3.00;100.00;102145.47;5026784;28;20444;-81
2022/01/20 03:34:09;;;;;;;29.88;2.47;;;;;;;2.99;100.00;102140.09;5045370;28;20065;-81
2022/01/20 03:36:35;;;;;;;28.02;2.42;;;;;;;2.98;100.00;102141.03;5042833;28;20504;-81
2022/01/20 03:39:01;;;;;;;27.17;2.50;;;;;;;3.04;100.00;102143.56;5042604;28;20492;-81
2022/01/20 03:41:27;;;;;;;35.42;2.75;;;;;;;3.04;100.00;102139.03;5024149;28;20046;-80
2022/01/20 03:43:52;;;;;;;33.72;2.13;;;;;;;2.99;100.00;102142.81;5015833;28;20070;-81
2022/01/20 03:46:18;;;;;;;29.58;2.33;;;;;;;3.01;100.00;102132.84;5025703;28;20057;-81
2022/01/20 03:48:53;;;;;;;47.15;3.08;;;;;;;3.05;100.00;102140.84;5032148;28;20025;-81
2022/01/20 03:51:22;;;;;;;35.65;2.03;;;;;;;3.15;100.00;102155.00;5011340;28;20037;-81
2022/01/20 03:53:50;;;;;;;22.30;2.30;;;;;;;3.21;100.00;102162.06;5043185;28;20025;-81
2022/01/20 03:56:17;;;;;;;19.15;2.20;;;;;;;3.23;100.00;102141.25;5033368;28;20034;-81
2022/01/20 03:58:43;;;;;;;49.88;3.08;;;;;;;3.23;100.00;102161.09;5038887;28;20041;-82
2022/01/20 04:01:09;;;;;;;18.23;1.80;;;;;;;3.33;100.00;102164.44;5028906;28;20083;-82
2022/01/20 04:03:36;;;;;;;37.10;2.22;;;;;;;3.31;100.00;102161.78;5043188;28;20045;-82
2022/01/20 04:06:01;;;;;;;32.25;2.03;;;;;;;3.36;100.00;102169.78;5025611;28;20069;-82
2022/01/20 04:08:50;;;;;;;43.25;2.25;;;;;;;3.31;100.00;102158.16;5024907;28;20041;-82
2022/01/20 04:11:18;;;;;;;33.42;2.83;;;;;;;3.27;100.00;102170.88;5025313;28;20042;-83
2022/01/20 04:13:44;;;;;;;31.20;2.30;;;;;;;3.15;100.00;102181.16;5029619;28;20029;-82
2022/01/20 04:16:16;;;;;;;30.60;1.58;;;;;;;3.07;100.00;102184.09;5038431;28;20030;-82
2022/01/20 04:18:56;;;;;;;21.98;3.17;;;;;;;3.01;100.00;102179.69;5036703;28;20052;-82
2022/01/20 04:21:27;;;;;;;25.50;3.00;;;;;;;2.99;100.00;102165.34;5030014;28;20044;-81
2022/01/20 04:23:54;;;;;;;29.73;3.47;;;;;;;2.93;100.00;102151.97;5033853;28;20061;-81
2022/01/20 04:26:21;;;;;;;29.60;2.95;;;;;;;2.84;100.00;102149.53;5040686;28;20091;-81
2022/01/20 04:28:46;;;;;;;37.58;2.72;;;;;;;2.76;100.00;102152.41;5047239;28;20013;-81
2022/01/20 04:31:12;;;;;;;52.10;4.45;;;;;;;2.71;100.00;102154.34;5042186;28;20021;-81
2022/01/20 04:33:37;;;;;;;35.33;4.30;;;;;;;2.73;100.00;102156.06;5040448;28;20038;-81
2022/01/20 04:36:05;;;;;;;45.47;4.22;;;;;;;2.72;100.00;102159.72;5052127;28;20057;-81
2022/01/20 04:38:31;;;;;;;37.80;3.65;;;;;;;2.81;100.00;102169.41;5040980;28;20468;-80
2022/01/20 04:40:56;;;;;;;35.53;4.30;;;;;;;2.82;100.00;102164.88;5043566;28;20025;-80
2022/01/20 04:43:23;;;;;;;46.55;4.88;;;;;;;2.87;100.00;102173.75;5031064;28;20037;-81
2022/01/20 04:45:56;;;;;;;84.28;4.78;;;;;;;2.85;100.00;102167.50;5027629;28;20021;-81
2022/01/20 04:48:44;;;;;;;55.25;4.68;;;;;;;2.93;100.00;102177.19;5023013;28;20037;-82
2022/01/20 04:59:22;;;;;;;49.35;2.95;;;;;;;3.08;100.00;102184.03;5038159;28;20060;-81
2022/01/20 05:01:48;;;;;;;53.17;2.90;;;;;;;3.13;100.00;102209.16;5024788;28;20041;-81
2022/01/20 05:04:13;;;;;;;35.08;2.97;;;;;;;3.10;100.00;102213.78;5036685;28;20045;-81
2022/01/20 05:06:41;;;;;;;38.38;2.72;;;;;;;3.07;100.00;102220.13;5037904;28;20112;-81
2022/01/20 05:09:07;;;;;;;38.88;2.85;;;;;;;3.02;100.00;102221.19;5024454;28;20029;-80
2022/01/20 05:11:35;;;;;;;39.00;3.13;;;;;;;2.93;100.00;102230.41;5036900;28;20044;-81
2022/01/20 05:14:01;;;;;;;34.47;3.40;;;;;;;2.86;100.00;102220.69;5031956;28;20116;-80
2022/01/20 05:16:26;;;;;;;35.50;2.45;;;;;;;2.84;100.00;102222.53;5035561;28;20111;-80
2022/01/20 05:18:52;;;;;;;22.48;2.17;;;;;;;2.74;100.00;102197.53;5039718;28;20022;-82
2022/01/20 05:21:18;;;;;;;33.65;2.65;;;;;;;2.83;100.00;102224.34;5019777;28;20091;-80
2022/01/20 05:23:43;;;;;;;27.45;2.20;;;;;;;2.82;100.00;102229.78;5039394;28;20397;-80
2022/01/20 05:26:10;;;;;;;32.75;2.80;;;;;;;2.73;100.00;102226.38;5036273;28;20029;-80
2022/01/20 05:28:35;;;;;;;39.22;2.63;;;;;;;2.69;100.00;102234.59;5036009;28;20060;-80
2022/01/20 05:31:02;;;;;;;30.95;3.47;;;;;;;2.67;100.00;102231.06;5035294;28;20022;-80
2022/01/20 05:33:28;;;;;;;31.45;3.20;;;;;;;2.73;100.00;102233.63;5026879;28;20100;-80
2022/01/20 05:35:53;;;;;;;39.88;3.17;;;;;;;2.78;100.00;102231.69;5019014;28;20029;-80
2022/01/20 05:38:19;;;;;;;45.83;3.25;;;;;;;2.76;100.00;102229.00;5033054;28;20076;-79
2022/01/20 05:40:45;;;;;;;37.42;2.42;;;;;;;2.85;100.00;102232.41;5038520;28;20046;-79
2022/01/20 05:43:11;;;;;;;45.42;2.97;;;;;;;2.71;100.00;102222.84;5026939;28;20046;-80
2022/01/20 05:45:37;;;;;;;52.17;3.30;;;;;;;2.79;100.00;102237.97;5039910;28;20029;-80
2022/01/20 05:48:15;;;;;;;42.05;4.10;;;;;;;2.84;100.00;102246.88;5039171;28;20025;-80
2022/01/20 05:50:41;;;;;;;29.50;3.08;;;;;;;2.88;100.00;102259.41;5038070;28;20061;-79
2022/01/20 05:53:07;;;;;;;33.85;4.53;;;;;;;2.91;100.00;102270.16;5034195;28;20076;-80
2022/01/20 05:55:35;;;;;;;36.28;2.78;;;;;;;2.96;100.00;102278.16;5030362;28;20033;-79
2022/01/20 05:58:01;;;;;;;37.33;3.47;;;;;;;3.00;100.00;102277.13;5017835;28;20612;-78
2022/01/20 06:00:27;;;;;;;23.55;1.65;;;;;;;2.97;100.00;102288.94;5022786;28;20026;-78
2022/01/20 06:05:39;;;;;;;31.88;3.15;;;;;;;2.86;100.00;102283.78;5031694;28;20049;-79
2022/01/20 06:08:05;;;;;;;50.58;3.40;;;;;;;2.82;100.00;102276.69;5043858;28;20499;-79
2022/01/20 06:10:31;;;;;;;28.52;2.92;;;;;;;2.86;100.00;102281.06;5043742;28;20069;-78
2022/01/20 06:12:57;;;;;;;27.27;2.03;;;;;;;2.83;100.00;102289.25;5036282;28;20021;-78
2022/01/20 06:15:23;;;;;;;26.33;2.40;;;;;;;2.82;100.00;102292.00;5027391;28;20048;-80
2022/01/20 06:17:48;;;;;;;34.85;2.55;;;;;;;2.81;100.00;102292.94;5027625;28;20481;-79
2022/01/20 06:20:14;;;;;;;26.35;2.35;;;;;;;2.80;100.00;102294.72;5033588;28;20095;-80
2022/01/20 06:22:40;;;;;;;39.03;3.90;;;;;;;2.71;100.00;102293.13;5036657;28;20119;-79
2022/01/20 06:25:07;;;;;;;38.10;3.90;;;;;;;2.68;100.00;102300.44;5017909;28;20029;-79
2022/01/20 06:27:33;;;;;;;41.22;3.08;;;;;;;2.70;100.00;102312.97;5036486;28;20087;-78
2022/01/20 06:29:58;;;;;;;46.22;2.90;;;;;;;2.64;100.00;102313.16;5020928;28;20548;-79
2022/01/20 06:32:24;;;;;;;43.60;2.97;;;;;;;2.68;100.00;102324.78;5037456;28;20113;-80
2022/01/20 06:34:49;;;;;;;61.08;4.30;;;;;;;2.67;100.00;102329.31;5027557;28;20096;-78
2022/01/20 06:37:15;;;;;;;37.92;3.75;;;;;;;2.63;100.00;102321.28;5036774;28;20097;-79
2022/01/20 06:39:41;;;;;;;55.60;2.83;;;;;;;2.56;100.00;102318.72;5038101;28;20061;-79
2022/01/20 06:42:07;;;;;;;69.35;3.83;;;;;;;2.60;100.00;102329.47;5036752;28;20025;-80
2022/01/20 06:44:32;;;;;;;80.22;5.20;;;;;;;2.55;100.00;102337.66;5037280;28;20492;-81
2022/01/20 06:46:58;;;;;;;63.28;3.97;;;;;;;2.60;100.00;102338.47;5031133;28;20124;-81
2022/01/20 06:49:23;;;;;;;83.32;4.20;;;;;;;2.52;100.00;102335.91;5051828;28;20049;-81
2022/01/20 06:51:49;;;;;;;48.38;6.57;;;;;;;2.51;100.00;102336.84;5037302;28;20132;-81
2022/01/20 06:54:15;;;;;;;56.97;2.95;;;;;;;2.48;100.00;102336.03;5037724;28;20068;-80
2022/01/20 06:56:41;;;;;;;88.35;5.82;;;;;;;2.44;100.00;102342.41;5037971;28;20128;-80
2022/01/20 06:59:12;;;;;;;71.40;3.97;;;;;;;2.44;100.00;102358.63;5020240;28;20037;-81
2022/01/20 07:01:39;;;;;;;47.60;2.92;;;;;;;2.47;100.00;102367.56;5022826;28;20040;-80
2022/01/20 07:04:04;;;;;;;85.07;4.03;;;;;;;2.52;100.00;102364.75;5041253;28;20036;-79
2022/01/20 07:06:30;;;;;;;75.20;4.60;;;;;;;2.50;100.00;102366.63;5044027;28;20754;-79
2022/01/20 07:08:55;;;;;;;62.58;4.00;;;;;;;2.44;100.00;102366.75;5041560;28;20484;-80
2022/01/20 07:11:21;;;;;;;73.63;5.20;;;;;;;2.38;100.00;102362.38;5036878;28;20037;-78
2022/01/20 07:13:47;;;;;;;54.72;3.45;;;;;;;2.39;100.00;102377.63;5035967;28;20117;-79
2022/01/20 07:16:12;;;;;;;79.00;4.78;;;;;;;2.30;100.00;102378.72;5019495;28;20041;-79
2022/01/20 07:18:38;;;;;;;59.10;3.72;;;;;;;2.41;100.00;102400.16;5038213;28;20038;-78
2022/01/20 07:21:03;;;;;;;59.63;4.28;;;;;;;2.38;100.00;102401.09;5039858;28;20036;-77
2022/01/20 07:23:29;;;;;;;43.30;4.85;;;;;;;2.37;100.00;102388.47;5038075;28;20065;-78
2022/01/20 07:25:54;;;;;;;54.35;4.25;;;;;;;2.39;100.00;102396.56;5036975;28;20044;-78
2022/01/20 07:28:20;;;;;;;56.88;3.78;;;;;;;2.42;100.00;102403.72;5037627;28;20128;-78
2022/01/20 07:30:45;;;;;;;59.55;3.78;;;;;;;2.41;100.00;102407.34;5039455;28;20397;-78
2022/01/20 07:33:11;;;;;;;51.30;3.95;;;;;;;2.37;100.00;102401.13;5038117;28;20053;-78
2022/01/20 07:35:37;;;;;;;66.10;4.15;;;;;;;2.37;100.00;102393.88;5039121;28;20041;-78
2022/01/20 07:38:04;;;;;;;47.20;2.97;;;;;;;2.41;100.00;102401.94;5030328;28;20049;-77
2022/01/20 07:40:31;;;;;;;53.92;3.90;;;;;;;2.40;100.00;102401.06;5032338;28;20056;-77
2022/01/20 07:42:57;;;;;;;84.65;5.68;;;;;;;2.45;100.00;102407.25;5031622;28;20026;-77
2022/01/20 07:45:22;;;;;;;64.18;5.47;;;;;;;2.45;100.00;102411.78;5038827;28;20040;-77
2022/01/20 07:47:48;;;;;;;60.50;4.05;;;;;;;2.47;100.00;102420.75;5041766;28;20501;-78
2022/01/20 07:50:14;;;;;;;75.82;5.90;;;;;;;2.52;100.00;102427.81;5021404;28;20041;-79
2022/01/20 07:52:39;;;;;;;51.60;3.70;;;;;;;2.55;100.00;102426.88;5040201;28;20508;-80
2022/01/20 07:55:05;;;;;;;44.95;3.70;;;;;;;2.51;100.00;102436.88;5038573;28;20063;-78
2022/01/20 07:57:30;;;;;;;41.83;3.63;;;;;;;2.51;100.00;102436.88;5030884;28;20056;-79
2022/01/20 07:59:56;;;;;;;67.50;4.40;;;;;;;2.47;100.00;102442.38;5039139;28;20079;-79
2022/01/20 08:02:21;;;;;;;69.55;5.93;;;;;;;2.51;100.00;102452.19;5043619;28;20041;-79
2022/01/20 08:04:47;;;;;;;54.90;4.65;;;;;;;2.62;100.00;102446.56;5032339;28;20059;-80
2022/01/20 08:07:12;;;;;;;56.33;2.92;;;;;;;2.50;100.00;102442.31;5041184;28;20033;-79
2022/01/20 08:09:38;;;;;;;44.47;3.13;;;;;;;2.49;100.00;102444.13;5042595;28;20060;-79
2022/01/20 08:12:05;;;;;;;62.03;6.07;;;;;;;2.51;100.00;102449.47;5040912;28;20033;-80
2022/01/20 08:14:30;;;;;;;46.83;3.97;;;;;;;2.50;100.00;102456.72;5028384;28;20038;-79
2022/01/20 08:16:56;;;;;;;64.65;4.40;;;;;;;2.51;100.00;102454.88;5056063;28;20034;-79
2022/01/20 08:19:21;;;;;;;60.58;4.25;;;;;;;2.47;100.00;102455.88;5047691;28;20032;-79
2022/01/20 08:21:47;;;;;;;53.58;3.40;;;;;;;2.44;100.00;102447.84;5059550;28;20024;-79
2022/01/20 08:24:12;;;;;;;49.22;4.05;;;;;;;2.44;100.00;102454.13;5043461;28;20412;-79
2022/01/20 08:26:38;;;;;;;45.03;3.63;;;;;;;2.44;100.00;102470.34;5024703;28;20079;-79
2022/01/20 08:29:03;;;;;;;56.50;3.80;;;;;;;2.44;100.00;102464.06;5024346;28;20067;-80
2022/01/20 08:31:29;;;;;;;71.53;4.07;;;;;;;2.47;100.00;102475.69;5021573;28;20041;-79
2022/01/20 08:33:56;;;;;;;60.40;5.30;;;;;;;2.43;100.00;102471.28;5025289;28;20089;-80
2022/01/20 08:36:22;;;;;;;77.90;5.18;;;;;;;2.48;100.00;102479.31;5015722;28;20063;-79
2022/01/20 08:38:47;;;;;;;43.75;3.75;;;;;;;2.48;100.00;102473.91;5038442;28;20130;-80
2022/01/20 08:41:13;;;;;;;51.65;3.67;;;;;;;2.44;100.00;102466.75;5038709;28;20033;-79
2022/01/20 08:43:38;;;;;;;44.47;3.25;;;;;;;2.48;100.00;102468.50;5022188;28;20049;-79
2022/01/20 08:46:10;;;;;;;56.92;3.63;;;;;;;2.53;100.00;102480.09;5023168;28;20385;-79
2022/01/20 08:48:36;;;;;;;60.25;3.53;;;;;;;2.53;100.00;102489.09;5041194;28;20053;-79
2022/01/20 08:51:03;;;;;;;34.47;3.47;;;;;;;2.52;100.00;102486.41;5041418;28;20068;-79
2022/01/20 08:53:28;;;;;;;45.70;3.58;;;;;;;2.56;100.00;102488.16;5025840;28;20041;-80
2022/01/20 08:55:54;;;;;;;54.63;2.92;;;;;;;2.58;100.00;102489.91;5040820;28;20373;-79
2022/01/20 08:58:19;;;;;;;48.17;2.65;;;;;;;2.61;100.00;102490.75;5042212;28;20377;-79
2022/01/20 09:00:45;;;;;;;32.75;2.42;;;;;;;2.58;100.00;102502.53;5037906;28;20030;-80
2022/01/20 09:03:11;;;;;;;45.78;2.78;;;;;;;2.60;100.00;102511.50;5024354;28;20025;-80
2022/01/20 09:05:37;;;;;;;47.67;4.00;;;;;;;2.71;100.00;102531.13;5041272;28;20057;-79
2022/01/20 09:08:03;;;;;;;28.95;2.70;;;;;;;2.77;100.00;102519.28;5040847;28;20034;-79
2022/01/20 09:10:36;;;;;;;34.25;2.88;;;;;;;2.71;100.00;102523.00;5057127;28;20397;-78
2022/01/20 09:15:47;;;;;;;57.08;3.70;;;;;;;2.71;100.00;102523.00;5055499;28;20033;-79
2022/01/20 09:18:13;;;;;;;34.55;3.03;;;;;;;2.74;100.00;102522.06;5044357;28;20033;-79
2022/01/20 09:20:39;;;;;;;35.58;2.63;;;;;;;2.74;100.00;102533.78;5045021;28;20480;-79
2022/01/20 09:23:05;;;;;;;47.45;5.93;;;;;;;2.67;100.00;102515.88;5045809;28;20037;-80
2022/01/20 09:25:32;;;;;;;37.13;2.88;;;;;;;2.77;100.00;102527.38;5044927;28;20037;-80
2022/01/20 09:27:59;;;;;;;41.78;2.50;;;;;;;2.72;100.00;102515.78;5045854;28;20053;-80
2022/01/20 09:30:26;;;;;;;41.35;2.85;;;;;;;2.87;100.00;102533.50;5027114;28;20398;-80
2022/01/20 09:33:16;;;;;;;21.02;1.77;;;;;;;2.88;100.00;102527.19;5027755;28;20128;-80
2022/01/20 09:35:42;;;;;;;32.20;2.50;;;;;;;2.87;100.00;102518.19;5043314;28;20072;-79
2022/01/20 09:38:09;;;;;;;49.35;2.88;;;;;;;2.93;100.00;102514.47;5043357;28;20045;-79
2022/01/20 09:40:36;;;;;;;43.15;3.85;;;;;;;2.96;100.00;102516.22;5043895;28;20053;-80
2022/01/20 09:43:03;;;;;;;34.80;2.28;;;;;;;3.00;100.00;102507.09;5044720;28;20030;-80
2022/01/20 09:45:28;;;;;;;39.22;2.28;;;;;;;3.02;100.00;102519.69;5027970;28;20044;-82
2022/01/20 09:47:54;;;;;;;33.72;3.25;;;;;;;3.05;100.00;102524.13;5045499;28;20397;-81
2022/01/20 09:50:21;;;;;;;27.50;1.92;;;;;;;3.08;100.00;102527.69;5042756;28;20034;-80
2022/01/20 09:52:48;;;;;;;30.60;2.78;;;;;;;3.07;100.00;102533.13;5046898;28;20034;-80
2022/01/20 09:55:15;;;;;;;42.45;2.97;;;;;;;3.17;100.00;102533.84;5049456;28;20044;-81
2022/01/20 09:57:41;;;;;;;35.42;2.65;;;;;;;3.25;100.00;102548.09;5031871;28;20044;-80
2022/01/20 10:00:10;;;;;;;41.78;2.95;;;;;;;3.45;100.00;102553.97;5040429;28;20052;-81
2022/01/20 10:02:36;;;;;;;38.95;2.92;;;;;;;3.31;100.00;102558.78;5047793;28;20041;-81
2022/01/20 10:05:03;;;;;;;47.78;3.72;;;;;;;3.30;100.00;102557.88;5046173;28;20029;-81
2022/01/20 10:07:34;;;;;;;43.50;4.18;;;;;;;3.36;100.00;102559.59;5046496;28;20503;-81
2022/01/20 10:10:00;;;;;;;25.15;1.88;;;;;;;3.42;100.00;102567.56;5028012;28;20032;-81
2022/01/20 10:12:34;;;;;;;53.50;4.28;;;;;;;3.42;100.00;102561.25;5045760;28;20025;-81
2022/01/20 10:15:00;;;;;;;45.05;3.28;;;;;;;3.42;100.00;102558.56;5049471;28;20037;-81
2022/01/20 10:17:30;;;;;;;37.33;2.05;;;;;;;3.47;100.00;102575.59;5027597;28;20393;-81
2022/01/20 10:20:03;;;;;;;55.92;3.33;;;;;;;3.44;100.00;102576.56;5041591;28;20432;-81
2022/01/20 10:22:29;;;;;;;;;;;;;;;3.46;100.00;102576.50;5061662;28;20041;-81
2022/01/20 10:25:05;;;;;;;49.35;3.70;;;;;;;3.48;100.00;102586.38;5027970;28;19913;-81
2022/01/20 10:27:33;;;;;;;38.63;3.47;;;;;;;3.54;100.00;102587.19;5024954;28;20115;-81
2022/01/20 10:30:08;;;;;;;36.78;2.83;;;;;;;3.57;100.00;102588.00;5027874;28;20037;-81
2022/01/20 10:32:40;;;;;;;30.05;3.95;;;;;;;3.56;100.00;102588.03;5024881;28;20123;-80
2022/01/20 10:35:07;;;;;;;35.72;3.20;;;;;;;3.58;100.00;102610.56;5025339;28;20037;-81
2022/01/20 10:37:32;;;;;;;37.92;3.15;;;;;;;3.50;100.00;102603.47;5045938;28;20026;-81
2022/01/20 10:40:07;;;;;;;31.98;3.40;;;;;;;3.38;100.00;102611.88;5044598;28;20040;-81
2022/01/20 10:42:44;;;;;;;36.30;2.35;;;;;;;3.36;100.00;102616.44;5045647;28;20072;-81
2022/01/20 10:45:25;;;;;;;42.80;4.10;;;;;;;3.48;100.00;102618.88;5044248;28;20493;-80
2022/01/20 10:47:53;;;;;;;46.15;3.67;;;;;;;3.86;100.00;102619.84;5043911;28;20507;-81
2022/01/20 10:50:23;;;;;;;30.42;2.85;;;;;;;4.34;100.00;102604.31;5026188;28;20056;-81
2022/01/20 10:52:50;;;;;;;37.72;4.32;;;;;;;4.70;100.00;102616.03;5045225;28;20025;-83
2022/01/20 10:55:29;;;;;;;43.17;3.17;;;;;;;4.50;100.00;102615.66;5044070;28;20046;-84
2022/01/20 10:57:57;;;;;;;42.25;3.90;;;;;;;4.30;100.00;102613.44;5024191;28;20393;-81
2022/01/20 11:00:25;;;;;;;34.30;2.67;;;;;;;4.24;100.00;102600.91;5024803;28;20047;-82
2022/01/20 11:02:55;;;;;;;61.95;4.30;;;;;;;4.23;100.00;102604.53;5041978;28;20025;-80
2022/01/20 11:05:22;;;;;;;37.63;1.90;;;;;;;4.17;100.00;102596.59;5040055;28;20030;-81
2022/01/20 11:07:48;;;;;;;24.63;2.05;;;;;;;4.33;100.00;102608.84;5039407;28;20091;-80
2022/01/20 11:10:15;;;;;;;42.00;2.75;;;;;;;4.64;100.00;102601.72;5039920;28;20100;-80
2022/01/20 11:12:42;;;;;;;51.90;3.25;;;;;;;4.50;100.00;102604.81;5019852;28;20038;-81
2022/01/20 11:15:10;;;;;;;39.85;3.25;;;;;;;4.34;100.00;102596.16;5036631;28;20030;-81
2022/01/20 11:17:40;;;;;;;33.13;3.92;;;;;;;4.40;100.00;102593.31;5035556;28;20114;-80
2022/01/20 11:20:17;;;;;;;44.38;3.38;;;;;;;4.29;100.00;102596.28;5038768;28;20033;-79
2022/01/20 11:23:00;;;;;;;46.67;3.47;;;;;;;4.24;100.00;102590.06;5040261;28;20040;-80
2022/01/20 11:25:28;;;;;;;27.33;3.38;;;;;;;4.15;100.00;102599.34;5040331;28;20044;-79
2022/01/20 11:28:08;;;;;;;22.23;2.17;;;;;;;4.01;100.00;102609.59;5021394;28;20028;-80
2022/01/20 11:30:38;;;;;;;36.63;2.67;;;;;;;3.83;100.00;102613.63;5039503;28;20053;-81
2022/01/20 11:33:08;;;;;;;17.08;1.50;;;;;;;3.80;100.00;102611.88;5023270;28;20076;-80
2022/01/20 11:35:43;;;;;;;29.85;2.40;;;;;;;3.89;100.00;102608.06;5018492;28;20864;-80
2022/01/20 11:38:10;;;;;;;36.45;2.70;;;;;;;3.97;100.00;102603.38;5032357;28;20046;-79
2022/01/20 11:40:48;;;;;;;40.63;2.60;;;;;;;3.83;100.00;102603.66;5022841;28;20036;-79
2022/01/20 11:43:14;;;;;;;53.90;4.68;;;;;;;3.83;100.00;102602.78;5018258;28;20456;-79
2022/01/20 11:45:51;;;;;;;35.35;1.90;;;;;;;3.90;100.00;102606.25;5016075;28;20041;-77
2022/01/20 11:48:25;;;;;;;50.63;3.85;;;;;;;3.86;100.00;102598.19;5034647;28;20117;-77
2022/01/20 11:51:03;;;;;;;71.88;3.13;;;;;;;3.81;100.00;102591.97;5034083;28;20041;-77
2022/01/20 11:53:29;;;;;;;23.38;2.28;;;;;;;3.74;100.00;102584.94;5037883;28;20037;-80
2022/01/20 11:55:55;;;;;;;35.33;2.58;;;;;;;3.74;100.00;102601.19;5041102;28;20033;-78
2022/01/20 11:58:24;;;;;;;23.90;2.08;;;;;;;3.99;100.00;102603.34;5041803;28;20056;-79
2022/01/20 12:01:04;;;;;;;22.42;2.03;;;;;;;4.26;100.00;102611.72;5042345;28;20030;-78
2022/01/20 12:03:30;;;;;;;40.13;3.75;;;;;;;4.47;100.00;102603.06;5024080;28;20083;-78
2022/01/20 12:06:01;;;;;;;17.98;2.88;;;;;;;4.35;100.00;102585.28;5040714;28;20025;-77
2022/01/20 12:08:26;;;;;;;29.15;1.70;;;;;;;4.30;100.00;102575.50;5041350;28;20029;-80
2022/01/20 12:11:04;;;;;;;22.02;2.08;;;;;;;4.17;100.00;102586.63;5039262;28;20028;-78
2022/01/20 12:13:31;;;;;;;32.78;2.25;;;;;;;4.24;100.00;102582.81;5052968;28;20434;-78
2022/01/20 12:16:01;;;;;;;27.80;2.22;;;;;;;4.09;100.00;102563.34;5020690;28;20076;-78
2022/01/20 12:18:28;;;;;;;30.33;2.03;;;;;;;4.19;100.00;102579.34;5021583;28;20037;-78